Airport View

Enter AWOS ICAO identifier for current METAR.

ex. KFNL

KGSO 100354Z 36006KT 10SM FEW050 BKN230 24/21 A2993 RMK AO2 SLP123 T02440206

10 Jul 2020 04:35

Phone: 336-393-0168

Other Area AWOS: KINT - KSIF - KBUY - KEXX

TAF AMD KGSO 092255Z 0923/1018 04008KT P6SM VCSH SCT025 BKN050 BKN150 TEMPO 0923/0924 -SHRA SCT035 BKN060 FM100000 03003KT P6SM FEW050 SCT250